Kathryn, ND (58049)

3:37 AM CDT on August 31, 2014 (GMT -0500)
Valley City | Change Station
CLOSE
Current Station
Airport
Location: Valley City,
Elevation: 1401 ft
Nearby Weather Stations

Elev 1401 ft 46.94 °N, 98.02 °W | Updated 22 minutes ago

Light Rain
Light Rain
59 °F
Feels Like 59 °F
N
7
Wind Variable Wind from East

Today
High -- | Low -- °F
--% Chance of Precip.
Yesterday
High -- | Low -- °F
Precip. -- in
6:50 AM 8:13 PM
Waxing Crescent, 29% visible
Pressure 29.72 in
Visibility 4.0 miles
Clouds Overcast 600 ft
Dew Point 59 °F
Humidity 100%
Rainfall 0.13 in
Snow Depth Not available.
UV 0 out of 12
Pollen 9.90 out of 12
Air Quality Not available.
Flu Activity Not available.
METAR KBAC 310815Z AUTO 10006KT 4SM VCTS -RA OVC006 15/15 A2972 RMK AO2 LTG DSNT ALQDS P0010

More Conditions Fewer Conditions

Pressure 29.72 in
Visibility 4.0 miles
Clouds Overcast 600 ft
Dew Point 59 °F
Humidity 100%
Rainfall 0.13 in
Snow Depth Not available.
UV 0 out of 12
Pollen 9.90 out of 12
Air Quality Not available.
Flu Activity Not available.
METAR KBAC 310815Z AUTO 10006KT 4SM VCTS -RA OVC006 15/15 A2972 RMK AO2 LTG DSNT ALQDS P0010

More Conditions Fewer Conditions

10-Day Weather Forecast

Almanac

Astronomy

Aug. 31, 2014 Rise Set
Actual Time 6:50 AM CDT 8:13 PM CDT
Civil Twilight 6:19 AM CDT 8:44 PM CDT
Nautical Twilight 5:41 AM CDT 9:22 PM CDT
Astronomical Twilight 5:00 AM CDT 10:02 PM CDT
Moon 1:01 PM CDT 11:05 PM CDT
Length of Visible Light 14h 25m
Length of Day
13h 22m
Tomorrow will be 3m 12s shorter.
Waxing Crescent, 29% of the Moon is Illuminated
Today
Waxing Crescent
Sep 2
First Quarter
Sep 8
Full
Sep 15
Last Quarter
Sep 24
New

Today's Extremes

State Highs State Lows

Community

WunderPhotos

Upload Photos

1,748,826 photos uploaded!

Nearby

Snow Depth

Station Depth Elevation
No new snow has been reported.

Earthquake Activity

City Distance Mag. Time & Date
No recent earthquake activity has been reported nearby.
Minimum magnitude displayed is 2.5.

Coastal Water Temperatures

Place Temperature
No Stations Reporting

Nearby Weather Stations